sensor_id;sensor_type;location;lat;lon;timestamp;P1;durP1;ratioP1;P2;durP2;ratioP2
25125;SDS011;13106;50.808;5.670;2022-09-03T00:00:17;3.55;;;1.40;;
25125;SDS011;13106;50.808;5.670;2022-09-03T00:02:48;4.03;;;1.10;;
25125;SDS011;13106;50.808;5.670;2022-09-03T00:05:22;3.45;;;1.10;;
25125;SDS011;13106;50.808;5.670;2022-09-03T00:13:03;3.90;;;1.20;;
25125;SDS011;13106;50.808;5.670;2022-09-03T00:15:31;2.78;;;0.90;;
25125;SDS011;13106;50.808;5.670;2022-09-03T00:18:01;3.38;;;1.02;;
25125;SDS011;13106;50.808;5.670;2022-09-03T00:20:30;4.57;;;1.02;;
25125;SDS011;13106;50.808;5.670;2022-09-03T00:23:05;3.33;;;1.75;;
25125;SDS011;13106;50.808;5.670;2022-09-03T00:27:58;1.45;;;0.88;;
25125;SDS011;13106;50.808;5.670;2022-09-03T00:30:26;2.47;;;1.30;;
25125;SDS011;13106;50.808;5.670;2022-09-03T00:33:00;2.90;;;1.10;;
25125;SDS011;13106;50.808;5.670;2022-09-03T00:35:32;3.40;;;1.15;;
25125;SDS011;13106;50.808;5.670;2022-09-03T00:37:59;1.13;;;1.02;;
25125;SDS011;13106;50.808;5.670;2022-09-03T00:45:45;1.63;;;1.02;;
25125;SDS011;13106;50.808;5.670;2022-09-03T00:48:20;3.20;;;1.13;;
25125;SDS011;13106;50.808;5.670;2022-09-03T00:50:52;3.72;;;1.30;;
25125;SDS011;13106;50.808;5.670;2022-09-03T01:00:58;2.47;;;1.30;;
25125;SDS011;13106;50.808;5.670;2022-09-03T01:03:45;1.40;;;1.25;;
25125;SDS011;13106;50.808;5.670;2022-09-03T01:06:18;1.58;;;1.13;;
25125;SDS011;13106;50.808;5.670;2022-09-03T01:11:41;1.98;;;1.20;;
25125;SDS011;13106;50.808;5.670;2022-09-03T01:17:06;1.40;;;1.10;;
25125;SDS011;13106;50.808;5.670;2022-09-03T01:30:06;3.70;;;1.20;;
25125;SDS011;13106;50.808;5.670;2022-09-03T01:35:46;1.20;;;0.90;;
25125;SDS011;13106;50.808;5.670;2022-09-03T02:01:18;2.47;;;1.30;;
25125;SDS011;13106;50.808;5.670;2022-09-03T02:03:47;2.65;;;1.27;;
25125;SDS011;13106;50.808;5.670;2022-09-03T02:06:14;3.40;;;1.23;;
25125;SDS011;13106;50.808;5.670;2022-09-03T02:08:44;2.85;;;1.20;;
25125;SDS011;13106;50.808;5.670;2022-09-03T02:11:10;2.55;;;1.30;;
25125;SDS011;13106;50.808;5.670;2022-09-03T02:13:37;3.13;;;1.20;;
25125;SDS011;13106;50.808;5.670;2022-09-03T02:16:12;1.33;;;1.20;;
25125;SDS011;13106;50.808;5.670;2022-09-03T02:18:43;4.93;;;1.23;;
25125;SDS011;13106;50.808;5.670;2022-09-03T02:21:11;2.53;;;1.25;;
25125;SDS011;13106;50.808;5.670;2022-09-03T02:23:38;2.30;;;1.20;;
25125;SDS011;13106;50.808;5.670;2022-09-03T02:26:05;3.72;;;1.30;;
25125;SDS011;13106;50.808;5.670;2022-09-03T02:28:33;1.67;;;1.00;;
25125;SDS011;13106;50.808;5.670;2022-09-03T02:30:59;1.95;;;1.27;;
25125;SDS011;13106;50.808;5.670;2022-09-03T02:33:25;2.50;;;1.40;;
25125;SDS011;13106;50.808;5.670;2022-09-03T02:35:52;3.20;;;1.30;;
25125;SDS011;13106;50.808;5.670;2022-09-03T02:38:20;4.13;;;1.23;;
25125;SDS011;13106;50.808;5.670;2022-09-03T02:43:26;4.75;;;1.20;;
25125;SDS011;13106;50.808;5.670;2022-09-03T02:45:56;3.75;;;1.30;;
25125;SDS011;13106;50.808;5.670;2022-09-03T02:48:24;4.67;;;1.30;;
25125;SDS011;13106;50.808;5.670;2022-09-03T02:50:50;1.52;;;1.40;;
25125;SDS011;13106;50.808;5.670;2022-09-03T02:53:16;1.73;;;1.10;;
25125;SDS011;13106;50.808;5.670;2022-09-03T02:55:42;2.53;;;1.38;;
25125;SDS011;13106;50.808;5.670;2022-09-03T02:58:08;2.65;;;1.27;;
25125;SDS011;13106;50.808;5.670;2022-09-03T03:00:34;2.63;;;1.40;;
25125;SDS011;13106;50.808;5.670;2022-09-03T03:03:04;2.47;;;1.35;;
25125;SDS011;13106;50.808;5.670;2022-09-03T03:05:37;1.77;;;1.20;;
25125;SDS011;13106;50.808;5.670;2022-09-03T03:08:07;4.20;;;1.65;;
25125;SDS011;13106;50.808;5.670;2022-09-03T03:10:33;6.07;;;1.73;;
25125;SDS011;13106;50.808;5.670;2022-09-03T03:12:59;3.88;;;1.52;;
25125;SDS011;13106;50.808;5.670;2022-09-03T03:15:25;4.88;;;1.60;;
25125;SDS011;13106;50.808;5.670;2022-09-03T03:17:54;3.30;;;1.80;;
25125;SDS011;13106;50.808;5.670;2022-09-03T03:20:21;5.20;;;2.05;;
25125;SDS011;13106;50.808;5.670;2022-09-03T03:22:47;2.38;;;1.60;;
25125;SDS011;13106;50.808;5.670;2022-09-03T03:25:13;5.95;;;1.90;;
25125;SDS011;13106;50.808;5.670;2022-09-03T03:27:39;3.33;;;1.73;;
25125;SDS011;13106;50.808;5.670;2022-09-03T03:30:07;4.47;;;1.80;;
25125;SDS011;13106;50.808;5.670;2022-09-03T03:32:34;3.28;;;1.95;;
25125;SDS011;13106;50.808;5.670;2022-09-03T03:35:00;3.13;;;2.05;;
25125;SDS011;13106;50.808;5.670;2022-09-03T03:37:26;6.32;;;2.28;;
25125;SDS011;13106;50.808;5.670;2022-09-03T03:39:52;2.85;;;1.75;;
25125;SDS011;13106;50.808;5.670;2022-09-03T03:42:18;3.13;;;1.98;;
25125;SDS011;13106;50.808;5.670;2022-09-03T03:44:44;2.22;;;1.77;;
25125;SDS011;13106;50.808;5.670;2022-09-03T03:47:10;3.30;;;1.52;;
25125;SDS011;13106;50.808;5.670;2022-09-03T03:49:36;3.15;;;1.90;;
25125;SDS011;13106;50.808;5.670;2022-09-03T03:52:03;7.93;;;2.05;;
25125;SDS011;13106;50.808;5.670;2022-09-03T03:54:29;6.13;;;1.85;;
25125;SDS011;13106;50.808;5.670;2022-09-03T03:56:55;2.65;;;1.70;;
25125;SDS011;13106;50.808;5.670;2022-09-03T03:59:21;2.25;;;1.98;;
25125;SDS011;13106;50.808;5.670;2022-09-03T04:01:47;2.35;;;1.80;;
25125;SDS011;13106;50.808;5.670;2022-09-03T04:04:14;2.38;;;1.80;;
25125;SDS011;13106;50.808;5.670;2022-09-03T04:06:40;4.10;;;1.90;;
25125;SDS011;13106;50.808;5.670;2022-09-03T04:09:07;3.90;;;1.73;;
25125;SDS011;13106;50.808;5.670;2022-09-03T04:11:33;4.45;;;1.60;;
25125;SDS011;13106;50.808;5.670;2022-09-03T04:14:01;4.95;;;1.42;;
25125;SDS011;13106;50.808;5.670;2022-09-03T04:16:27;3.38;;;1.80;;
25125;SDS011;13106;50.808;5.670;2022-09-03T04:18:54;4.57;;;1.77;;
25125;SDS011;13106;50.808;5.670;2022-09-03T04:21:21;2.67;;;1.55;;
25125;SDS011;13106;50.808;5.670;2022-09-03T04:23:48;2.80;;;1.50;;
25125;SDS011;13106;50.808;5.670;2022-09-03T04:26:16;3.72;;;1.50;;
25125;SDS011;13106;50.808;5.670;2022-09-03T04:28:42;2.60;;;1.70;;
25125;SDS011;13106;50.808;5.670;2022-09-03T04:31:09;3.10;;;1.73;;
25125;SDS011;13106;50.808;5.670;2022-09-03T04:33:36;3.15;;;1.77;;
25125;SDS011;13106;50.808;5.670;2022-09-03T04:38:29;3.83;;;1.60;;
25125;SDS011;13106;50.808;5.670;2022-09-03T04:40:56;2.97;;;1.67;;
25125;SDS011;13106;50.808;5.670;2022-09-03T04:43:23;5.40;;;1.92;;
25125;SDS011;13106;50.808;5.670;2022-09-03T04:45:49;4.72;;;2.13;;
25125;SDS011;13106;50.808;5.670;2022-09-03T04:48:15;2.75;;;1.85;;
25125;SDS011;13106;50.808;5.670;2022-09-03T04:50:41;8.25;;;2.03;;
25125;SDS011;13106;50.808;5.670;2022-09-03T04:53:07;3.35;;;2.22;;
25125;SDS011;13106;50.808;5.670;2022-09-03T04:55:34;5.03;;;2.20;;
25125;SDS011;13106;50.808;5.670;2022-09-03T04:58:00;4.53;;;2.00;;
25125;SDS011;13106;50.808;5.670;2022-09-03T05:00:26;4.18;;;1.92;;
25125;SDS011;13106;50.808;5.670;2022-09-03T05:02:52;4.05;;;2.28;;
25125;SDS011;13106;50.808;5.670;2022-09-03T05:05:18;2.47;;;1.95;;
25125;SDS011;13106;50.808;5.670;2022-09-03T05:07:44;4.03;;;2.10;;
25125;SDS011;13106;50.808;5.670;2022-09-03T05:10:11;3.17;;;1.90;;
25125;SDS011;13106;50.808;5.670;2022-09-03T05:12:40;5.35;;;1.80;;
25125;SDS011;13106;50.808;5.670;2022-09-03T05:15:06;3.72;;;2.13;;
25125;SDS011;13106;50.808;5.670;2022-09-03T05:17:32;4.93;;;1.95;;
25125;SDS011;13106;50.808;5.670;2022-09-03T05:19:58;5.88;;;1.90;;
25125;SDS011;13106;50.808;5.670;2022-09-03T05:22:25;5.28;;;2.15;;
25125;SDS011;13106;50.808;5.670;2022-09-03T05:24:51;5.05;;;1.85;;
25125;SDS011;13106;50.808;5.670;2022-09-03T05:27:17;5.07;;;2.25;;
25125;SDS011;13106;50.808;5.670;2022-09-03T05:29:43;4.30;;;2.00;;
25125;SDS011;13106;50.808;5.670;2022-09-03T05:32:09;3.50;;;2.00;;
25125;SDS011;13106;50.808;5.670;2022-09-03T05:34:35;4.72;;;2.15;;
25125;SDS011;13106;50.808;5.670;2022-09-03T05:37:01;5.30;;;2.40;;
25125;SDS011;13106;50.808;5.670;2022-09-03T05:39:27;3.22;;;2.60;;
25125;SDS011;13106;50.808;5.670;2022-09-03T05:41:53;4.75;;;1.90;;
25125;SDS011;13106;50.808;5.670;2022-09-03T05:44:19;2.85;;;1.90;;
25125;SDS011;13106;50.808;5.670;2022-09-03T05:46:48;7.00;;;2.67;;
25125;SDS011;13106;50.808;5.670;2022-09-03T05:49:15;6.15;;;2.50;;
25125;SDS011;13106;50.808;5.670;2022-09-03T05:51:42;5.53;;;2.13;;
25125;SDS011;13106;50.808;5.670;2022-09-03T05:54:09;5.80;;;1.92;;
25125;SDS011;13106;50.808;5.670;2022-09-03T05:56:36;6.03;;;2.38;;
25125;SDS011;13106;50.808;5.670;2022-09-03T05:59:04;3.90;;;1.60;;
25125;SDS011;13106;50.808;5.670;2022-09-03T06:01:37;3.05;;;1.92;;
25125;SDS011;13106;50.808;5.670;2022-09-03T06:04:04;4.57;;;2.00;;
25125;SDS011;13106;50.808;5.670;2022-09-03T06:06:32;4.43;;;1.80;;
25125;SDS011;13106;50.808;5.670;2022-09-03T06:08:59;6.55;;;1.98;;
25125;SDS011;13106;50.808;5.670;2022-09-03T06:11:26;4.35;;;1.95;;
25125;SDS011;13106;50.808;5.670;2022-09-03T06:13:56;4.13;;;1.67;;
25125;SDS011;13106;50.808;5.670;2022-09-03T06:16:24;5.20;;;1.80;;
25125;SDS011;13106;50.808;5.670;2022-09-03T06:18:50;4.82;;;2.05;;
25125;SDS011;13106;50.808;5.670;2022-09-03T06:21:17;3.75;;;2.10;;
25125;SDS011;13106;50.808;5.670;2022-09-03T06:23:47;5.88;;;2.35;;
25125;SDS011;13106;50.808;5.670;2022-09-03T06:26:13;4.28;;;2.17;;
25125;SDS011;13106;50.808;5.670;2022-09-03T06:28:40;7.65;;;1.80;;
25125;SDS011;13106;50.808;5.670;2022-09-03T06:31:10;2.97;;;1.95;;
25125;SDS011;13106;50.808;5.670;2022-09-03T06:33:37;5.35;;;1.75;;
25125;SDS011;13106;50.808;5.670;2022-09-03T06:36:07;5.90;;;2.03;;
25125;SDS011;13106;50.808;5.670;2022-09-03T06:38:34;3.97;;;1.55;;
25125;SDS011;13106;50.808;5.670;2022-09-03T06:41:01;3.28;;;1.40;;
25125;SDS011;13106;50.808;5.670;2022-09-03T06:43:32;2.20;;;1.35;;
25125;SDS011;13106;50.808;5.670;2022-09-03T06:46:32;5.32;;;1.50;;
25125;SDS011;13106;50.808;5.670;2022-09-03T06:48:51;9.65;;;1.88;;
25125;SDS011;13106;50.808;5.670;2022-09-03T06:51:18;4.05;;;1.60;;
25125;SDS011;13106;50.808;5.670;2022-09-03T06:53:45;2.40;;;1.48;;
25125;SDS011;13106;50.808;5.670;2022-09-03T06:56:13;4.90;;;1.70;;
25125;SDS011;13106;50.808;5.670;2022-09-03T06:58:40;2.78;;;1.40;;
25125;SDS011;13106;50.808;5.670;2022-09-03T07:03:36;2.38;;;1.40;;
25125;SDS011;13106;50.808;5.670;2022-09-03T07:06:03;2.95;;;1.55;;
25125;SDS011;13106;50.808;5.670;2022-09-03T07:08:30;3.05;;;1.40;;
25125;SDS011;13106;50.808;5.670;2022-09-03T07:10:57;4.15;;;1.45;;
25125;SDS011;13106;50.808;5.670;2022-09-03T07:13:24;1.92;;;1.40;;
25125;SDS011;13106;50.808;5.670;2022-09-03T07:16:00;3.85;;;1.52;;
25125;SDS011;13106;50.808;5.670;2022-09-03T07:18:26;2.33;;;1.30;;
25125;SDS011;13106;50.808;5.670;2022-09-03T07:20:56;2.17;;;1.20;;
25125;SDS011;13106;50.808;5.670;2022-09-03T07:23:23;2.85;;;1.23;;
25125;SDS011;13106;50.808;5.670;2022-09-03T07:25:56;3.90;;;1.30;;
25125;SDS011;13106;50.808;5.670;2022-09-03T07:28:22;1.95;;;1.25;;
25125;SDS011;13106;50.808;5.670;2022-09-03T07:30:49;3.38;;;1.30;;
25125;SDS011;13106;50.808;5.670;2022-09-03T07:33:15;4.68;;;1.50;;
25125;SDS011;13106;50.808;5.670;2022-09-03T07:35:42;5.50;;;1.50;;
25125;SDS011;13106;50.808;5.670;2022-09-03T07:38:08;4.50;;;1.35;;
25125;SDS011;13106;50.808;5.670;2022-09-03T07:40:35;3.33;;;1.50;;
25125;SDS011;13106;50.808;5.670;2022-09-03T07:43:03;5.80;;;1.73;;
25125;SDS011;13106;50.808;5.670;2022-09-03T07:45:29;4.00;;;1.30;;
25125;SDS011;13106;50.808;5.670;2022-09-03T07:47:56;6.10;;;1.30;;
25125;SDS011;13106;50.808;5.670;2022-09-03T07:50:22;6.28;;;1.50;;
25125;SDS011;13106;50.808;5.670;2022-09-03T07:52:48;3.10;;;1.20;;
25125;SDS011;13106;50.808;5.670;2022-09-03T07:55:15;2.75;;;1.40;;
25125;SDS011;13106;50.808;5.670;2022-09-03T07:57:41;7.13;;;1.55;;
25125;SDS011;13106;50.808;5.670;2022-09-03T08:00:07;3.92;;;1.33;;
25125;SDS011;13106;50.808;5.670;2022-09-03T08:02:33;2.75;;;1.33;;
25125;SDS011;13106;50.808;5.670;2022-09-03T08:05:00;3.25;;;1.20;;
25125;SDS011;13106;50.808;5.670;2022-09-03T08:07:27;4.82;;;1.70;;
25125;SDS011;13106;50.808;5.670;2022-09-03T08:09:54;3.03;;;1.27;;
25125;SDS011;13106;50.808;5.670;2022-09-03T08:12:20;8.73;;;1.80;;
25125;SDS011;13106;50.808;5.670;2022-09-03T08:14:46;7.75;;;1.60;;
25125;SDS011;13106;50.808;5.670;2022-09-03T08:17:12;9.27;;;1.80;;
25125;SDS011;13106;50.808;5.670;2022-09-03T08:19:38;5.93;;;1.58;;
25125;SDS011;13106;50.808;5.670;2022-09-03T08:22:06;5.40;;;1.77;;
25125;SDS011;13106;50.808;5.670;2022-09-03T08:24:32;10.60;;;2.28;;
25125;SDS011;13106;50.808;5.670;2022-09-03T08:26:59;15.68;;;2.50;;
25125;SDS011;13106;50.808;5.670;2022-09-03T08:29:25;14.52;;;2.50;;
25125;SDS011;13106;50.808;5.670;2022-09-03T08:31:52;12.15;;;2.50;;
25125;SDS011;13106;50.808;5.670;2022-09-03T08:34:18;14.30;;;2.72;;
25125;SDS011;13106;50.808;5.670;2022-09-03T08:36:44;3.65;;;1.98;;
25125;SDS011;13106;50.808;5.670;2022-09-03T08:39:11;7.65;;;2.83;;
25125;SDS011;13106;50.808;5.670;2022-09-03T08:51:53;8.10;;;2.05;;
25125;SDS011;13106;50.808;5.670;2022-09-03T08:54:22;7.47;;;2.35;;
25125;SDS011;13106;50.808;5.670;2022-09-03T08:56:49;6.35;;;2.67;;
25125;SDS011;13106;50.808;5.670;2022-09-03T08:59:16;7.50;;;2.55;;
25125;SDS011;13106;50.808;5.670;2022-09-03T09:06:43;5.28;;;2.25;;
25125;SDS011;13106;50.808;5.670;2022-09-03T09:11:45;6.72;;;2.22;;
25125;SDS011;13106;50.808;5.670;2022-09-03T09:14:18;11.70;;;2.70;;
25125;SDS011;13106;50.808;5.670;2022-09-03T09:21:46;4.20;;;2.13;;
25125;SDS011;13106;50.808;5.670;2022-09-03T09:24:18;5.43;;;2.30;;
25125;SDS011;13106;50.808;5.670;2022-09-03T09:26:47;5.07;;;2.15;;
25125;SDS011;13106;50.808;5.670;2022-09-03T09:29:13;5.55;;;2.42;;
25125;SDS011;13106;50.808;5.670;2022-09-03T09:31:40;6.63;;;2.47;;
25125;SDS011;13106;50.808;5.670;2022-09-03T09:34:09;6.80;;;2.45;;
25125;SDS011;13106;50.808;5.670;2022-09-03T09:36:42;6.72;;;2.30;;
25125;SDS011;13106;50.808;5.670;2022-09-03T09:39:10;4.88;;;2.45;;
25125;SDS011;13106;50.808;5.670;2022-09-03T09:41:39;4.78;;;2.40;;
25125;SDS011;13106;50.808;5.670;2022-09-03T09:44:06;7.70;;;2.60;;
25125;SDS011;13106;50.808;5.670;2022-09-03T09:46:36;9.38;;;2.33;;
25125;SDS011;13106;50.808;5.670;2022-09-03T09:49:06;14.23;;;2.72;;
25125;SDS011;13106;50.808;5.670;2022-09-03T09:51:33;15.90;;;3.20;;
25125;SDS011;13106;50.808;5.670;2022-09-03T09:54:01;5.70;;;2.25;;
25125;SDS011;13106;50.808;5.670;2022-09-03T09:56:27;5.55;;;2.60;;
25125;SDS011;13106;50.808;5.670;2022-09-03T09:59:04;6.60;;;2.83;;
25125;SDS011;13106;50.808;5.670;2022-09-03T10:01:30;8.10;;;2.75;;
25125;SDS011;13106;50.808;5.670;2022-09-03T10:04:00;14.20;;;2.90;;
25125;SDS011;13106;50.808;5.670;2022-09-03T10:06:33;12.85;;;2.95;;
25125;SDS011;13106;50.808;5.670;2022-09-03T10:09:28;9.18;;;2.53;;
25125;SDS011;13106;50.808;5.670;2022-09-03T10:12:08;9.77;;;2.85;;
25125;SDS011;13106;50.808;5.670;2022-09-03T10:14:43;6.38;;;2.20;;
25125;SDS011;13106;50.808;5.670;2022-09-03T10:17:19;6.25;;;2.80;;
25125;SDS011;13106;50.808;5.670;2022-09-03T10:19:49;9.18;;;3.05;;
25125;SDS011;13106;50.808;5.670;2022-09-03T10:22:43;7.60;;;2.50;;
25125;SDS011;13106;50.808;5.670;2022-09-03T10:25:10;4.93;;;1.95;;
25125;SDS011;13106;50.808;5.670;2022-09-03T10:27:38;7.65;;;2.45;;
25125;SDS011;13106;50.808;5.670;2022-09-03T10:30:04;6.75;;;2.10;;
25125;SDS011;13106;50.808;5.670;2022-09-03T10:37:36;7.70;;;2.13;;
25125;SDS011;13106;50.808;5.670;2022-09-03T10:45:16;5.13;;;2.00;;
25125;SDS011;13106;50.808;5.670;2022-09-03T10:47:52;4.55;;;2.33;;
25125;SDS011;13106;50.808;5.670;2022-09-03T10:50:22;11.70;;;2.10;;
25125;SDS011;13106;50.808;5.670;2022-09-03T10:55:28;8.68;;;1.90;;
25125;SDS011;13106;50.808;5.670;2022-09-03T10:58:05;6.35;;;2.17;;
25125;SDS011;13106;50.808;5.670;2022-09-03T11:00:46;3.10;;;1.77;;
25125;SDS011;13106;50.808;5.670;2022-09-03T11:06:03;5.07;;;2.03;;
25125;SDS011;13106;50.808;5.670;2022-09-03T11:08:53;7.20;;;2.20;;
25125;SDS011;13106;50.808;5.670;2022-09-03T11:11:19;3.13;;;2.05;;
25125;SDS011;13106;50.808;5.670;2022-09-03T11:13:50;9.18;;;2.15;;
25125;SDS011;13106;50.808;5.670;2022-09-03T11:16:19;4.60;;;2.00;;
25125;SDS011;13106;50.808;5.670;2022-09-03T11:21:27;2.80;;;2.03;;
25125;SDS011;13106;50.808;5.670;2022-09-03T11:26:30;3.55;;;2.10;;
25125;SDS011;13106;50.808;5.670;2022-09-03T11:33:58;2.90;;;2.33;;
25125;SDS011;13106;50.808;5.670;2022-09-03T11:36:28;3.45;;;2.20;;
25125;SDS011;13106;50.808;5.670;2022-09-03T11:38:54;5.53;;;2.00;;
25125;SDS011;13106;50.808;5.670;2022-09-03T11:41:27;4.22;;;1.67;;
25125;SDS011;13106;50.808;5.670;2022-09-03T11:43:55;4.50;;;2.08;;
25125;SDS011;13106;50.808;5.670;2022-09-03T11:48:51;3.88;;;1.98;;
25125;SDS011;13106;50.808;5.670;2022-09-03T11:53:58;3.05;;;1.77;;
25125;SDS011;13106;50.808;5.670;2022-09-03T11:56:24;2.22;;;1.75;;
25125;SDS011;13106;50.808;5.670;2022-09-03T11:58:58;2.83;;;1.80;;
25125;SDS011;13106;50.808;5.670;2022-09-03T12:01:24;2.55;;;1.63;;
25125;SDS011;13106;50.808;5.670;2022-09-03T12:04:02;4.28;;;2.00;;
25125;SDS011;13106;50.808;5.670;2022-09-03T12:16:50;3.28;;;1.90;;
25125;SDS011;13106;50.808;5.670;2022-09-03T12:22:18;2.88;;;1.90;;
25125;SDS011;13106;50.808;5.670;2022-09-03T12:24:44;4.18;;;2.10;;
25125;SDS011;13106;50.808;5.670;2022-09-03T12:27:12;4.65;;;1.75;;
25125;SDS011;13106;50.808;5.670;2022-09-03T12:29:48;3.50;;;1.83;;
25125;SDS011;13106;50.808;5.670;2022-09-03T12:32:15;2.28;;;1.88;;
25125;SDS011;13106;50.808;5.670;2022-09-03T12:34:42;3.30;;;1.52;;
25125;SDS011;13106;50.808;5.670;2022-09-03T12:37:22;5.47;;;1.92;;
25125;SDS011;13106;50.808;5.670;2022-09-03T12:39:49;2.00;;;1.65;;
25125;SDS011;13106;50.808;5.670;2022-09-03T12:42:25;3.67;;;1.48;;
25125;SDS011;13106;50.808;5.670;2022-09-03T12:44:52;3.20;;;2.30;;
25125;SDS011;13106;50.808;5.670;2022-09-03T12:47:19;3.90;;;2.00;;
25125;SDS011;13106;50.808;5.670;2022-09-03T12:49:56;5.40;;;1.90;;
25125;SDS011;13106;50.808;5.670;2022-09-03T12:57:16;6.97;;;2.47;;
25125;SDS011;13106;50.808;5.670;2022-09-03T12:59:43;4.95;;;2.40;;
25125;SDS011;13106;50.808;5.670;2022-09-03T13:02:19;3.15;;;2.47;;
25125;SDS011;13106;50.808;5.670;2022-09-03T13:04:47;2.33;;;1.83;;
25125;SDS011;13106;50.808;5.670;2022-09-03T13:07:26;3.28;;;2.42;;
25125;SDS011;13106;50.808;5.670;2022-09-03T13:09:57;3.00;;;2.58;;
25125;SDS011;13106;50.808;5.670;2022-09-03T13:14:49;4.57;;;2.60;;
25125;SDS011;13106;50.808;5.670;2022-09-03T13:17:22;5.65;;;2.50;;
25125;SDS011;13106;50.808;5.670;2022-09-03T13:22:38;5.43;;;2.63;;
25125;SDS011;13106;50.808;5.670;2022-09-03T13:25:13;4.72;;;2.55;;
25125;SDS011;13106;50.808;5.670;2022-09-03T13:30:14;3.60;;;2.30;;
25125;SDS011;13106;50.808;5.670;2022-09-03T13:40:24;8.32;;;2.90;;
25125;SDS011;13106;50.808;5.670;2022-09-03T13:43:04;3.35;;;2.65;;
25125;SDS011;13106;50.808;5.670;2022-09-03T13:45:38;4.50;;;2.78;;
25125;SDS011;13106;50.808;5.670;2022-09-03T13:50:52;4.05;;;3.38;;
25125;SDS011;13106;50.808;5.670;2022-09-03T13:56:05;5.50;;;3.17;;
25125;SDS011;13106;50.808;5.670;2022-09-03T14:01:22;5.00;;;2.72;;
25125;SDS011;13106;50.808;5.670;2022-09-03T14:03:57;5.45;;;2.30;;
25125;SDS011;13106;50.808;5.670;2022-09-03T14:09:14;4.68;;;2.38;;
25125;SDS011;13106;50.808;5.670;2022-09-03T14:14:20;3.23;;;2.57;;
25125;SDS011;13106;50.808;5.670;2022-09-03T14:19:22;2.70;;;2.50;;
25125;SDS011;13106;50.808;5.670;2022-09-03T14:24:51;3.13;;;2.20;;
25125;SDS011;13106;50.808;5.670;2022-09-03T14:27:21;3.95;;;2.03;;
25125;SDS011;13106;50.808;5.670;2022-09-03T14:29:52;3.80;;;2.50;;
25125;SDS011;13106;50.808;5.670;2022-09-03T14:39:53;3.40;;;2.30;;
25125;SDS011;13106;50.808;5.670;2022-09-03T14:44:55;3.60;;;2.13;;
25125;SDS011;13106;50.808;5.670;2022-09-03T14:50:11;3.33;;;2.47;;
25125;SDS011;13106;50.808;5.670;2022-09-03T15:00:04;2.78;;;2.28;;
25125;SDS011;13106;50.808;5.670;2022-09-03T15:08:18;4.20;;;2.17;;
25125;SDS011;13106;50.808;5.670;2022-09-03T15:10:49;3.45;;;1.77;;
25125;SDS011;13106;50.808;5.670;2022-09-03T15:18:29;3.00;;;2.15;;
25125;SDS011;13106;50.808;5.670;2022-09-03T15:20:59;5.05;;;2.20;;
25125;SDS011;13106;50.808;5.670;2022-09-03T15:28:53;3.25;;;1.70;;
25125;SDS011;13106;50.808;5.670;2022-09-03T15:31:26;4.05;;;2.00;;
25125;SDS011;13106;50.808;5.670;2022-09-03T15:34:00;3.22;;;1.88;;
25125;SDS011;13106;50.808;5.670;2022-09-03T15:36:40;3.45;;;1.73;;
25125;SDS011;13106;50.808;5.670;2022-09-03T15:41:58;2.33;;;1.35;;
25125;SDS011;13106;50.808;5.670;2022-09-03T15:44:24;5.78;;;2.00;;
25125;SDS011;13106;50.808;5.670;2022-09-03T15:46:52;4.20;;;1.80;;
25125;SDS011;13106;50.808;5.670;2022-09-03T15:50:07;5.85;;;2.00;;
25125;SDS011;13106;50.808;5.670;2022-09-03T15:54:45;3.85;;;1.70;;
25125;SDS011;13106;50.808;5.670;2022-09-03T15:57:19;3.92;;;1.70;;
25125;SDS011;13106;50.808;5.670;2022-09-03T15:59:51;4.18;;;1.67;;
25125;SDS011;13106;50.808;5.670;2022-09-03T16:02:24;2.10;;;1.70;;
25125;SDS011;13106;50.808;5.670;2022-09-03T16:05:01;1.80;;;1.70;;
25125;SDS011;13106;50.808;5.670;2022-09-03T16:12:40;2.60;;;1.60;;
25125;SDS011;13106;50.808;5.670;2022-09-03T16:15:19;4.10;;;1.85;;
25125;SDS011;13106;50.808;5.670;2022-09-03T16:17:55;4.50;;;1.92;;
25125;SDS011;13106;50.808;5.670;2022-09-03T16:22:56;1.88;;;1.67;;
25125;SDS011;13106;50.808;5.670;2022-09-03T16:25:34;1.90;;;1.75;;
25125;SDS011;13106;50.808;5.670;2022-09-03T16:28:10;3.65;;;1.95;;
25125;SDS011;13106;50.808;5.670;2022-09-03T16:33:20;1.38;;;1.27;;
25125;SDS011;13106;50.808;5.670;2022-09-03T16:36:05;4.90;;;1.48;;
25125;SDS011;13106;50.808;5.670;2022-09-03T16:44:03;3.13;;;1.70;;
25125;SDS011;13106;50.808;5.670;2022-09-03T16:49:24;4.60;;;1.60;;
25125;SDS011;13106;50.808;5.670;2022-09-03T16:51:55;2.95;;;1.50;;
25125;SDS011;13106;50.808;5.670;2022-09-03T17:07:56;2.38;;;1.80;;
25125;SDS011;13106;50.808;5.670;2022-09-03T17:15:52;2.72;;;1.88;;
25125;SDS011;13106;50.808;5.670;2022-09-03T17:21:11;5.10;;;2.00;;
25125;SDS011;13106;50.808;5.670;2022-09-03T17:34:26;2.85;;;1.83;;
25125;SDS011;13106;50.808;5.670;2022-09-03T17:42:29;2.88;;;2.05;;
25125;SDS011;13106;50.808;5.670;2022-09-03T17:45:06;3.85;;;2.30;;
25125;SDS011;13106;50.808;5.670;2022-09-03T17:47:47;2.28;;;2.00;;
25125;SDS011;13106;50.808;5.670;2022-09-03T17:50:25;3.88;;;2.40;;
25125;SDS011;13106;50.808;5.670;2022-09-03T17:52:56;2.47;;;2.00;;
25125;SDS011;13106;50.808;5.670;2022-09-03T17:57:58;2.85;;;2.30;;
25125;SDS011;13106;50.808;5.670;2022-09-03T18:00:35;3.35;;;2.40;;
25125;SDS011;13106;50.808;5.670;2022-09-03T18:08:25;8.63;;;3.00;;
25125;SDS011;13106;50.808;5.670;2022-09-03T18:11:12;8.48;;;2.70;;
25125;SDS011;13106;50.808;5.670;2022-09-03T18:16:10;6.38;;;2.90;;
25125;SDS011;13106;50.808;5.670;2022-09-03T18:18:39;6.70;;;2.97;;
25125;SDS011;13106;50.808;5.670;2022-09-03T18:21:09;4.70;;;3.05;;
25125;SDS011;13106;50.808;5.670;2022-09-03T18:26:54;5.32;;;3.35;;
25125;SDS011;13106;50.808;5.670;2022-09-03T18:29:44;6.28;;;2.95;;
25125;SDS011;13106;50.808;5.670;2022-09-03T18:32:30;4.28;;;2.80;;
25125;SDS011;13106;50.808;5.670;2022-09-03T18:35:14;3.15;;;2.85;;
25125;SDS011;13106;50.808;5.670;2022-09-03T18:38:01;6.05;;;2.97;;
25125;SDS011;13106;50.808;5.670;2022-09-03T18:40:55;6.05;;;2.90;;
25125;SDS011;13106;50.808;5.670;2022-09-03T18:49:45;14.82;;;3.90;;
25125;SDS011;13106;50.808;5.670;2022-09-03T19:01:30;11.63;;;3.38;;
25125;SDS011;13106;50.808;5.670;2022-09-03T19:07:22;3.97;;;2.53;;
25125;SDS011;13106;50.808;5.670;2022-09-03T19:10:16;5.22;;;2.83;;
25125;SDS011;13106;50.808;5.670;2022-09-03T19:16:08;5.95;;;2.60;;
25125;SDS011;13106;50.808;5.670;2022-09-03T19:21:39;5.90;;;2.70;;
25125;SDS011;13106;50.808;5.670;2022-09-03T19:24:28;8.30;;;2.60;;
25125;SDS011;13106;50.808;5.670;2022-09-03T19:30:06;5.50;;;3.10;;
25125;SDS011;13106;50.808;5.670;2022-09-03T19:33:00;4.03;;;2.70;;
25125;SDS011;13106;50.808;5.670;2022-09-03T19:35:51;4.25;;;2.70;;
25125;SDS011;13106;50.808;5.670;2022-09-03T19:41:31;5.25;;;2.60;;
25125;SDS011;13106;50.808;5.670;2022-09-03T19:44:29;3.53;;;2.22;;
25125;SDS011;13106;50.808;5.670;2022-09-03T19:47:20;3.90;;;2.60;;
25125;SDS011;13106;50.808;5.670;2022-09-03T19:50:13;4.80;;;2.50;;
25125;SDS011;13106;50.808;5.670;2022-09-03T19:53:06;4.82;;;2.55;;
25125;SDS011;13106;50.808;5.670;2022-09-03T19:55:52;4.43;;;2.33;;
25125;SDS011;13106;50.808;5.670;2022-09-03T19:58:39;3.90;;;2.78;;
25125;SDS011;13106;50.808;5.670;2022-09-03T20:01:32;4.47;;;2.63;;
25125;SDS011;13106;50.808;5.670;2022-09-03T20:04:17;3.47;;;2.55;;
25125;SDS011;13106;50.808;5.670;2022-09-03T20:07:04;3.22;;;2.45;;
25125;SDS011;13106;50.808;5.670;2022-09-03T20:09:49;4.55;;;2.40;;
25125;SDS011;13106;50.808;5.670;2022-09-03T20:12:39;3.30;;;2.20;;
25125;SDS011;13106;50.808;5.670;2022-09-03T20:15:07;4.43;;;2.40;;
25125;SDS011;13106;50.808;5.670;2022-09-03T20:17:55;2.42;;;2.20;;
25125;SDS011;13106;50.808;5.670;2022-09-03T20:20:24;4.47;;;2.13;;
25125;SDS011;13106;50.808;5.670;2022-09-03T20:23:00;4.07;;;2.28;;
25125;SDS011;13106;50.808;5.670;2022-09-03T20:30:54;3.55;;;2.22;;
25125;SDS011;13106;50.808;5.670;2022-09-03T20:36:04;2.33;;;2.10;;